Time;durP1;ratioP1;P1;durP2;ratioP2;P2;SDS_P1;SDS_P2;PMS_P1;PMS_P2;Temp;Humidity;BMP_temperature;BMP_pressure;BME280_temperature;BME280_humidity;BME280_pressure;Samples;Min_cycle;Max_cycle;Signal;HPM_P1;HPM_P2
2022/12/20 00:01:15;;;;;;;11.40;3.92;;;;;;;;;;5094349;28;20097;-89
2022/12/20 00:03:43;;;;;;;6.97;4.13;;;;;;;;;;5093947;28;20055;-90
2022/12/20 00:06:09;;;;;;;9.73;4.30;;;;;;;;;;5077222;28;20114;-90
2022/12/20 00:08:36;;;;;;;8.25;4.82;;;;;;;;;;5077363;28;20043;-90
2022/12/20 00:11:03;;;;;;;7.30;4.20;;;;;;;;;;5111508;28;20096;-90
2022/12/20 00:13:30;;;;;;;4.63;3.75;;;;;;;;;;5094317;28;20040;-91
2022/12/20 00:16:09;;;;;;;4.97;3.92;;;;;;;;;;5095933;28;20072;-89
2022/12/20 00:18:37;;;;;;;4.25;3.42;;;9.90;99.90;;;;;;5114813;28;20088;-89
2022/12/20 00:21:04;;;;;;;7.60;3.65;;;;;;;;;;5097746;28;20544;-89
2022/12/20 00:23:30;;;;;;;5.72;3.83;;;;;;;;;;5098114;28;20040;-91
2022/12/20 00:26:19;;;;;;;4.75;3.83;;;;;;;;;;5081067;28;20085;-90
2022/12/20 00:28:45;;;;;;;4.30;3.90;;;;;;;;;;5114299;28;20051;-90
2022/12/20 00:31:12;;;;;;;6.28;3.92;;;;;;;;;;5114541;28;20039;-90
2022/12/20 00:33:41;;;;;;;5.38;3.90;;;;;;;;;;5098374;28;20103;-90
2022/12/20 00:36:07;;;;;;;14.82;4.47;;;;;;;;;;5114642;28;20063;-91
2022/12/20 00:38:34;;;;;;;6.65;3.75;;;;;;;;;;5114709;28;20473;-89
2022/12/20 00:41:03;;;;;;;4.30;3.72;;;;;;;;;;5097225;28;20050;-89
2022/12/20 00:43:30;;;;;;;3.47;3.17;;;;;;;;;;5114416;28;20046;-90
2022/12/20 00:45:56;;;;;;;6.43;4.03;;;;;;;;;;5097231;28;20044;-89
2022/12/20 00:48:22;;;;;;;9.02;4.05;;;;;;;;;;5114292;28;20048;-90
2022/12/20 00:50:49;;;;;;;7.40;4.18;;;;;;;;;;5097531;28;20510;-89
2022/12/20 00:53:15;;;;;;;8.85;3.85;;;;;;;;;;5097114;28;20275;-89
2022/12/20 00:55:42;;;;;;;9.73;3.63;;;;;;;;;;5097056;28;20040;-89
2022/12/20 00:58:08;;;;;;;6.70;4.25;;;;;;;;;;5114270;28;20130;-90
2022/12/20 01:00:34;;;;;;;9.60;4.18;;;;;;;;;;5080343;28;20031;-89
2022/12/20 01:03:00;;;;;;;5.38;3.88;;;;;;;;;;5113965;28;20059;-88
2022/12/20 01:05:26;;;;;;;3.30;2.90;;;;;;;;;;5080213;28;20047;-88
2022/12/20 01:07:52;;;;;;;3.92;3.42;;;;;;;;;;5079724;28;20048;-89
2022/12/20 01:10:18;;;;;;;7.60;3.65;;;;;;;;;;5079870;28;20043;-88
2022/12/20 01:12:44;;;;;;;5.30;3.58;;;;;;;;;;5096566;28;20043;-89
2022/12/20 01:15:11;;;;;;;3.70;3.13;;;;;;;;;;5079878;28;20040;-88
2022/12/20 01:17:37;;;;;;;6.88;3.42;;;;;;;;;;5114062;28;20093;-88
2022/12/20 01:20:03;;;;;;;5.07;3.22;;;;;;;;;;5096923;28;20050;-88
2022/12/20 01:22:29;;;;;;;5.32;3.58;;;;;;;;;;5113909;28;20122;-88
2022/12/20 01:24:55;;;;;;;4.65;3.75;;;;;;;;;;5113662;28;20504;-89
2022/12/20 01:27:21;;;;;;;7.82;4.05;;;;;;;;;;5114065;28;20134;-88
2022/12/20 01:29:48;;;;;;;5.95;3.53;;;;;;;;;;5080967;28;20040;-88
2022/12/20 01:32:14;;;;;;;7.03;3.47;;;;;;;;;;5097254;28;20066;-90
2022/12/20 01:34:40;;;;;;;4.75;3.53;;;;;;;;;;5079878;28;20040;-89
2022/12/20 01:37:06;;;;;;;3.88;3.35;;;;;;;;;;5080315;28;20047;-89
2022/12/20 01:39:32;;;;;;;5.22;3.60;;;;;;;;;;5096221;28;20506;-89
2022/12/20 01:41:58;;;;;;;4.40;3.58;;;;;;;;;;5096156;28;20500;-88
2022/12/20 01:44:24;;;;;;;5.32;3.70;;;;;;;;;;5096476;28;20473;-89
2022/12/20 01:46:50;;;;;;;5.97;3.30;;;;;;;;;;5095837;28;20054;-89
2022/12/20 01:49:16;;;;;;;3.17;2.78;;;;;;;;;;5096244;28;20040;-90
2022/12/20 01:51:44;;;;;;;5.05;3.67;;;;;;;;;;5095911;28;20044;-88
2022/12/20 01:54:12;;;;;;;3.45;3.08;;;;;;;;;;5095746;28;20051;-89
2022/12/20 01:56:40;;;;;;;4.60;3.90;;;;;;;;;;5096018;28;20035;-88
2022/12/20 01:59:07;;;;;;;5.10;3.13;;;;;;;;;;5095783;28;20044;-89
2022/12/20 02:01:34;;;;;;;7.00;3.55;;;;;;;;;;5095609;28;20130;-90
2022/12/20 02:04:00;;;;;;;4.60;3.45;;;;;;;;;;5112430;28;20059;-89
2022/12/20 02:06:26;;;;;;;4.60;3.50;;;;;;;;;;5078853;28;20452;-89
2022/12/20 02:08:55;;;;;;;6.60;3.55;;;;;;;;;;5095540;28;20043;-89
2022/12/20 02:11:31;;;;;;;6.55;3.38;;;;;;;;;;5095575;28;20047;-90
2022/12/20 02:14:15;;;;;;;4.45;3.70;;;;;;;;;;5112730;28;20036;-90
2022/12/20 02:16:55;;;;;;;8.90;3.75;;;;;;;;;;5095237;28;20499;-89
2022/12/20 02:19:36;;;;;;;5.80;3.22;;;;;;;;;;5095619;28;20139;-89
2022/12/20 02:22:18;;;;;;;3.10;2.80;;;;;;;;;;5095646;28;20510;-90
2022/12/20 02:25:01;;;;;;;4.25;3.33;;;;;;;;;;5095269;28;20463;-89
2022/12/20 02:27:52;;;;;;;4.75;3.83;;;;;;;;;;5095358;28;20044;-90
2022/12/20 02:30:20;;;;;;;3.38;3.08;;;;;;;;;;5095360;28;20043;-89
2022/12/20 02:32:56;;;;;;;4.63;2.88;;;;;;;;;;5095084;28;20047;-89
2022/12/20 02:35:24;;;;;;;4.85;3.05;;;;;;;;;;5095330;28;20372;-89
2022/12/20 02:37:52;;;;;;;5.30;3.63;;;;;;;;;;5094241;28;20538;-89
2022/12/20 02:40:21;;;;;;;4.43;3.00;;;;;;;;;;5112011;28;20035;-89
2022/12/20 02:42:50;;;;;;;6.38;3.80;;;;;;;;;;5095099;28;20096;-90
2022/12/20 02:45:19;;;;;;;3.92;3.30;;;;;;;;;;5094670;28;20510;-89
2022/12/20 02:47:46;;;;;;;5.10;3.72;;;;;;;;;;5094797;28;20047;-89
2022/12/20 02:50:12;;;;;;;3.92;3.60;;;;;;;;;;5111875;28;20036;-90
2022/12/20 02:52:38;;;;;;;3.70;2.85;;;;;;;;;;5111752;28;20051;-89
2022/12/20 02:55:04;;;;;;;3.60;3.30;;;;;;;;;;5094599;28;20051;-89
2022/12/20 02:57:43;;;;;;;3.67;3.20;;;;;;;;;;5094606;28;20068;-89
2022/12/20 03:00:12;;;;;;;6.35;3.55;;;;;;;;;;5111851;28;20161;-91
2022/12/20 03:05:24;;;;;;;5.90;3.50;;;;;;;;;;5111851;28;20073;-90
2022/12/20 03:07:50;;;;;;;5.57;3.28;;;;;;;;;;5078039;28;20138;-89
2022/12/20 03:10:16;;;;;;;3.85;3.30;;;;;;;;;;5077981;28;20044;-90
2022/12/20 03:12:42;;;;;;;5.53;4.07;;;;;;;;;;5077955;28;20043;-90
2022/12/20 03:15:09;;;;;;;4.07;3.35;;;;;;;;;;5077364;28;20071;-90
2022/12/20 03:17:35;;;;;;;4.70;3.50;;;;;;;;;;5077697;28;20512;-90
2022/12/20 03:20:01;;;;;;;5.03;3.72;;;;;;;;;;5094649;28;20453;-90
2022/12/20 03:22:27;;;;;;;4.15;3.63;;;;;;;;;;5094347;28;20082;-89
2022/12/20 03:24:53;;;;;;;5.30;2.83;;;;;;;;;;5077934;28;20047;-90
2022/12/20 03:27:19;;;;;;;4.90;3.67;;;;;;;;;;5078050;28;20036;-90
2022/12/20 03:29:45;;;;;;;4.75;3.55;;;;;;;;;;5077730;28;20097;-91
2022/12/20 03:32:12;;;;;;;6.20;3.67;;;;;;;;;;5094544;28;20403;-90
2022/12/20 03:34:38;;;;;;;5.10;3.88;;;;;;;;;;5094687;28;20044;-90
2022/12/20 03:37:04;;;;;;;6.20;3.80;;;;;;;;;;5094475;28;20461;-89
2022/12/20 03:39:31;;;;;;;6.80;3.38;;;;;;;;;;5094414;28;20082;-89
2022/12/20 03:41:57;;;;;;;4.15;3.50;;;;;;;;;;5094456;28;20082;-90
2022/12/20 03:44:24;;;;;;;5.18;3.50;;;;;;;;;;5094128;28;20109;-90
2022/12/20 03:46:50;;;;;;;3.78;3.45;;;;;;;;;;5111059;28;20050;-90
2022/12/20 03:49:16;;;;;;;5.63;3.70;;;;;;;;;;5112110;28;20035;-91
2022/12/20 03:51:42;;;;;;;4.63;3.65;;;;;;;;;;5098789;28;20074;-91
2022/12/20 03:54:08;;;;;;;6.55;3.03;;;;;;;;;;5081818;28;20119;-90
2022/12/20 03:56:34;;;;;;;3.92;3.45;;;;;;;;;;5098586;28;20452;-89
2022/12/20 03:59:00;;;;;;;4.88;3.40;;;;;;;;;;5098371;28;20039;-90
2022/12/20 04:01:27;;;;;;;5.13;3.40;;;;;;;;;;5081993;28;20103;-90
2022/12/20 04:03:53;;;;;;;4.88;3.78;;;;;;;;;;5115110;28;20052;-90
2022/12/20 04:06:20;;;;;;;8.15;3.95;;;;;;;;;;5098228;28;20047;-90
2022/12/20 04:08:46;;;;;;;3.95;3.53;;;;;;;;;;5081368;28;20051;-91
2022/12/20 04:11:15;;;;;;;5.05;3.33;;;;;;;;;;5098014;28;20040;-88
2022/12/20 04:13:45;;;;;;;4.55;3.05;;;;;;;;;;5097746;28;20134;-90
2022/12/20 04:16:12;;;;;;;5.40;3.63;;;;;;;;;;5114939;28;20445;-89
2022/12/20 04:18:38;;;;;;;4.72;3.95;;;;;;;;;;5115050;28;20039;-89
2022/12/20 04:21:06;;;;;;;5.88;3.55;;;;;;;;;;5114939;28;20046;-89
2022/12/20 04:23:33;;;;;;;5.82;3.60;;;;;;;;;;5114795;28;20109;-89
2022/12/20 04:25:59;;;;;;;4.90;3.78;;;;;;;;;;5097805;28;20044;-90
2022/12/20 04:28:25;;;;;;;3.95;3.63;;;;;;;;;;5098487;28;20564;-90
2022/12/20 04:30:51;;;;;;;3.97;3.58;;;;;;;;;;5099355;28;20075;-90
2022/12/20 04:33:17;;;;;;;4.03;3.63;;;;;;;;;;5081203;28;20047;-89
2022/12/20 04:35:43;;;;;;;4.40;3.22;;;;;;;;;;5080858;28;20096;-90
2022/12/20 04:38:09;;;;;;;5.45;3.60;;;;;;;;;;5097990;28;20257;-90
2022/12/20 04:40:35;;;;;;;4.75;3.60;;;;;;;;;;5097636;28;20043;-90
2022/12/20 04:43:01;;;;;;;7.95;3.70;;;;;;;;;;5097287;28;20039;-90
2022/12/20 04:45:27;;;;;;;5.03;3.80;;;;;;;;;;5080533;28;20035;-90
2022/12/20 04:47:53;;;;;;;4.28;3.70;;;;;;;;;;5080486;28;20055;-91
2022/12/20 04:50:19;;;;;;;4.03;3.25;;;;;;;;;;5097342;28;20126;-90
2022/12/20 04:55:30;;;;;;;7.53;3.85;;;;;;;;;;5100120;28;20080;-91
2022/12/20 04:57:56;;;;;;;8.20;3.97;;;;;;;;;;5080842;28;20047;-90
2022/12/20 05:00:22;;;;;;;3.83;3.45;;;;;;;;;;5080068;28;20096;-91
2022/12/20 05:02:48;;;;;;;5.40;3.30;;;;;;;;;;5079674;28;20140;-90
2022/12/20 05:05:15;;;;;;;7.47;4.53;;;;;;;;;;5080173;28;20048;-91
2022/12/20 05:07:41;;;;;;;5.50;4.00;;;;;;;;;;5096728;28;20043;-90
2022/12/20 05:10:07;;;;;;;4.30;3.22;;;;;;;;;;5080846;28;20456;-91
2022/12/20 05:12:33;;;;;;;6.25;3.25;;;;;;;;;;5096862;28;20044;-90
2022/12/20 05:14:59;;;;;;;4.55;3.83;;;;;;;;;;5096479;28;20079;-90
2022/12/20 05:17:25;;;;;;;4.63;3.70;;;;;;;;;;5096949;28;20043;-90
2022/12/20 05:19:51;;;;;;;8.38;4.38;;;;;;;;;;5079846;28;20035;-91
2022/12/20 05:27:46;;;;;;;4.82;3.38;;;;;;;;;;5113330;28;20047;-90
2022/12/20 05:30:13;;;;;;;8.43;4.38;;;;;;;;;;5096572;28;20446;-90
2022/12/20 05:32:39;;;;;;;6.88;4.18;;;;;;;;;;5096861;28;20043;-92
2022/12/20 05:35:05;;;;;;;5.93;3.90;;;;;;;;;;5096525;28;20476;-90
2022/12/20 05:37:31;;;;;;;5.65;3.70;;;;;;;;;;5079686;28;20134;-91
2022/12/20 05:39:57;;;;;;;4.53;3.50;;;;;;;;;;5096633;28;20518;-90
2022/12/20 05:42:23;;;;;;;5.05;3.65;;;;;;;;;;5096747;28;20079;-90
2022/12/20 05:44:50;;;;;;;4.30;3.90;;;;;;;;;;5079283;28;20046;-90
2022/12/20 05:47:16;;;;;;;3.78;3.40;;;;;;;;;;5096179;28;20066;-91
2022/12/20 05:49:42;;;;;;;5.03;3.42;;;;;;;;;;5104474;28;20039;-91
2022/12/20 05:52:08;;;;;;;5.30;3.53;;;;;;;;;;5091857;28;20072;-90
2022/12/20 05:54:34;;;;;;;4.70;3.42;;;;;;;;;;5089885;28;20046;-90
2022/12/20 05:57:00;;;;;;;7.13;3.65;;;;;;;;;;5121285;28;20044;-90
2022/12/20 05:59:26;;;;;;;3.97;3.50;;;;;;;;;;5113715;28;20043;-90
2022/12/20 06:01:53;;;;;;;3.47;3.17;;;;;;;;;;5096976;28;20046;-91
2022/12/20 06:04:19;;;;;;;4.32;3.00;;;;;;;;;;5113624;28;20499;-90
2022/12/20 06:06:46;;;;;;;6.57;4.43;;;;;;;;;;5096975;28;20465;-90
2022/12/20 06:09:12;;;;;;;5.78;3.45;;;;;;;;;;5080075;28;20044;-90
2022/12/20 06:11:38;;;;;;;4.22;3.08;;;;;;;;;;5096818;28;20047;-90
2022/12/20 06:14:04;;;;;;;4.30;3.78;;;;;;;;;;5095897;28;20131;-90
2022/12/20 06:16:30;;;;;;;4.05;3.75;;;;;;;;;;5096319;28;20478;-90
2022/12/20 06:18:56;;;;;;;3.88;3.13;;;;;;;;;;5096280;28;20495;-90
2022/12/20 06:21:23;;;;;;;5.03;3.40;;;;;;;;;;5114527;28;20035;-90
2022/12/20 06:23:51;;;;;;;3.42;2.70;;;;;;;;;;5096344;28;20050;-90
2022/12/20 06:26:18;;;;;;;4.35;3.53;;;;;;;;;;5096405;28;20043;-90
2022/12/20 06:28:44;;;;;;;5.82;4.13;;;;;;;;;;5096418;28;20423;-91
2022/12/20 06:31:11;;;;;;;9.45;4.20;;;;;;;;;;5095914;28;20043;-91
2022/12/20 06:33:37;;;;;;;3.83;2.90;;;;;;;;;;5113122;28;20050;-90
2022/12/20 06:36:03;;;;;;;5.30;3.10;;;;;;;;;;5095643;28;20039;-90
2022/12/20 06:38:30;;;;;;;3.78;3.47;;;;;;;;;;5095839;28;20047;-90
2022/12/20 06:40:56;;;;;;;9.23;3.65;;;;;;;;;;5095268;28;20500;-90
2022/12/20 06:43:24;;;;;;;9.80;3.50;;;;;;;;;;5095497;28;20082;-90
2022/12/20 06:45:50;;;;;;;5.03;3.17;;;;;;;;;;5112081;28;20040;-90
2022/12/20 06:48:16;;;;;;;5.18;3.42;;;;;;;;;;5077737;28;20283;-90
2022/12/20 06:50:42;;;;;;;3.72;3.42;;;;;;;;;;5095438;28;20040;-90
2022/12/20 06:53:08;;;;;;;4.40;3.20;;;;;;;;;;5095280;28;20051;-90
2022/12/20 06:55:35;;;;;;;5.38;3.67;;;;;;;;;;5095713;28;20502;-90
2022/12/20 06:58:01;;;;;;;4.00;3.38;;;;;;;;;;5078208;28;20044;-90
2022/12/20 07:00:27;;;;;;;4.57;3.83;;;;;;;;;;5095175;28;20040;-90
2022/12/20 07:02:53;;;;;;;4.18;3.60;;;;;;;;;;5095040;28;20056;-90
2022/12/20 07:05:19;;;;;;;10.30;3.70;;;;;;;;;;5095341;28;20126;-89
2022/12/20 07:07:45;;;;;;;5.05;3.47;;;;;;;;;;5094842;28;20496;-90
2022/12/20 07:10:12;;;;;;;4.57;3.10;;;;;;;;;;5096385;28;20047;-91
2022/12/20 07:12:38;;;;;;;5.65;3.30;;;;;;;;;;5115627;28;20043;-94
2022/12/20 07:15:04;;;;;;;3.95;3.53;;;;;;;;;;5097048;28;20092;-94
2022/12/20 07:17:30;;;;;;;5.53;4.15;;;;;;;;;;5095868;28;20047;-90
2022/12/20 07:19:56;;;;;;;6.47;3.75;;;;;;;;;;5095197;28;20032;-89
2022/12/20 07:22:22;;;;;;;3.92;3.38;;;;;;;;;;5094670;28;20054;-89
2022/12/20 07:24:49;;;;;;;5.07;4.10;;;;;;;;;;5094236;28;20048;-91
2022/12/20 07:27:15;;;;;;;5.70;3.90;;;;;;;;;;5094577;28;20100;-91
2022/12/20 07:29:41;;;;;;;4.70;4.30;;;;;;;;;;5094653;28;20052;-90
2022/12/20 07:32:07;;;;;;;6.50;4.18;;;;;;;;;;5078089;28;20050;-90
2022/12/20 07:34:33;;;;;;;5.15;4.60;;;;;;;;;;5111639;28;20047;-90
2022/12/20 07:37:00;;;;;;;4.35;3.95;;;;;;;;;;5077699;28;20483;-91
2022/12/20 07:39:26;;;;;;;7.68;4.88;;;;;;;;;;5077823;28;20039;-89
2022/12/20 07:41:55;;;;;;;6.00;5.10;;;;;;;;;;5095035;28;20048;-90
2022/12/20 07:44:22;;;;;;;11.18;4.75;;;;;;;;;;5077665;28;20096;-90
2022/12/20 07:46:48;;;;;;;5.95;5.20;;;;;;;;;;5093989;28;20047;-90
2022/12/20 07:49:14;;;;;;;6.68;4.95;;;;;;;;;;5094434;28;20039;-90
2022/12/20 07:51:45;;;;;;;5.93;4.75;;;;;;;;;;5094358;28;20108;-90
2022/12/20 07:54:13;;;;;;;7.78;5.55;;;;;;;;;;5094361;28;20395;-92
2022/12/20 07:56:42;;;;;;;7.07;5.05;;;;;;;;;;5094046;28;20036;-92
2022/12/20 07:59:09;;;;;;;9.68;5.32;;;;;;;;;;5094827;28;20043;-93
2022/12/20 08:01:36;;;;;;;12.38;4.60;;;;;;;;;;5095922;28;20050;-90
2022/12/20 08:04:11;;;;;;;7.28;5.18;;;;;;;;;;5108850;28;20055;-93
2022/12/20 08:06:39;;;;;;;6.40;5.03;;;;;;;;;;5108896;28;20043;-91
2022/12/20 08:09:06;;;;;;;5.78;4.90;;;;;;;;;;5097922;28;20044;-89
2022/12/20 08:11:32;;;;;;;6.10;5.50;;;;;;;;;;5113622;28;20476;-91
2022/12/20 08:13:59;;;;;;;7.57;5.18;;;;;;;;;;5097336;28;20058;-90
2022/12/20 08:16:25;;;;;;;7.75;5.00;;;;;;;;;;5080845;28;20046;-90
2022/12/20 08:18:51;;;;;;;6.53;5.10;;;;;;;;;;5097075;28;20036;-90
2022/12/20 08:21:17;;;;;;;10.52;5.32;;;;;;;;;;5093918;28;20052;-90
2022/12/20 08:23:44;;;;;;;6.35;4.97;;;;;;;;;;5093986;28;20062;-90
2022/12/20 08:26:10;;;;;;;6.50;4.85;;;;;;;;;;5094328;28;20412;-90
2022/12/20 08:28:36;;;;;;;4.30;3.90;;;;;;;;;;5094239;28;20044;-90
2022/12/20 08:31:03;;;;;;;5.90;4.28;;;;;;;;;;5093937;28;20136;-90
2022/12/20 08:33:29;;;;;;;5.20;4.60;;;;;;;;;;5110830;28;20046;-90
2022/12/20 08:36:01;;;;;;;4.68;4.13;;;;;;;;;;5094247;28;20107;-91
2022/12/20 08:38:27;;;;;;;4.90;3.97;;;;;;;;;;5098147;28;20043;-90
2022/12/20 08:40:53;;;;;;;4.20;3.75;;;;;;;;;;5080725;28;20046;-90
2022/12/20 08:43:19;;;;;;;7.20;4.55;;;;;;;;;;5097313;28;20443;-90
2022/12/20 08:45:51;;;;;;;6.22;4.10;;;;;;;;;;5097053;28;20476;-90
2022/12/20 08:48:17;;;;;;;4.65;4.13;;;;;;;;;;5097083;28;20157;-90
2022/12/20 08:50:44;;;;;;;5.65;3.88;;;;;;;;;;5080224;28;20042;-90
2022/12/20 08:53:10;;;;;;;6.72;4.13;;;;;;;;;;5097402;28;20565;-90
2022/12/20 08:55:36;;;;;;;5.75;3.78;;;;;;;;;;5080613;28;20062;-90
2022/12/20 08:58:02;;;;;;;4.60;3.38;;;;;;;;;;5114145;28;20051;-90
2022/12/20 09:00:28;;;;;;;6.05;3.55;;;;;;;;;;5080362;28;20047;-90
2022/12/20 09:02:54;;;;;;;6.30;3.42;;;;;;;;;;5080288;28;20056;-90
2022/12/20 09:05:20;;;;;;;4.57;2.92;;;;;;;;;;5079919;28;20104;-90
2022/12/20 09:07:46;;;;;;;4.72;3.42;;;;;;;;;;5080058;28;20515;-90
2022/12/20 09:10:13;;;;;;;3.45;3.15;;;;;;;;;;5080317;28;20039;-90
2022/12/20 09:12:39;;;;;;;3.17;2.88;;;;;;;;;;5097269;28;20339;-90
2022/12/20 09:15:06;;;;;;;4.10;3.28;;;;;;;;;;5079863;28;20043;-90
2022/12/20 09:17:32;;;;;;;3.75;3.25;;;;;;;;;;5097159;28;20043;-91
2022/12/20 09:19:58;;;;;;;5.32;3.10;;;;;;;;;;5080236;28;20040;-90
2022/12/20 09:22:24;;;;;;;4.85;3.53;;;;;;;;;;5096707;28;20039;-89
2022/12/20 09:24:50;;;;;;;4.43;3.50;;;;;;;;;;5097204;28;20047;-90
2022/12/20 09:27:16;;;;;;;5.95;2.85;;;;;;;;;;5096663;28;20112;-91
2022/12/20 09:29:42;;;;;;;5.15;3.28;;;;;;;;;;5096736;28;20043;-90
2022/12/20 09:32:08;;;;;;;3.08;2.83;;;;;;;;;;5080006;28;20044;-90
2022/12/20 09:34:34;;;;;;;9.52;3.20;;;;;;;;;;5079906;28;20035;-90
2022/12/20 09:37:00;;;;;;;7.93;3.20;;;;;;;;;;5096362;28;20039;-91
2022/12/20 09:39:26;;;;;;;4.18;3.20;;;;;;;;;;5079760;28;20039;-91
2022/12/20 09:41:53;;;;;;;4.53;3.00;;;;;;;;;;5079497;28;20384;-90
2022/12/20 09:44:19;;;;;;;3.45;3.00;;;;;;;;;;5079873;28;20040;-91
2022/12/20 09:46:46;;;;;;;5.00;2.80;;;;;;;;;;5096017;28;20043;-90
2022/12/20 09:49:18;;;;;;;5.85;2.33;;;;;;;;;;5113253;28;20385;-91
2022/12/20 09:51:50;;;;;;;4.68;2.88;;;;;;;;;;5096677;28;20039;-91
2022/12/20 09:54:23;;;;;;;5.97;3.10;;;;;;;;;;5097382;28;20084;-90
2022/12/20 09:57:26;;;;;;;4.90;3.22;;;10.80;99.90;;;;;;5096078;28;20079;-90
2022/12/20 09:59:55;;;;;;;2.92;2.42;;;;;;;;;;5113538;28;20445;-91
2022/12/20 10:02:23;;;;;;;4.57;2.92;;;;;;;;;;5095884;28;20044;-90
2022/12/20 10:04:49;;;;;;;3.05;2.45;;;;;;;;;;5095673;28;20055;-90
2022/12/20 10:07:27;;;;;;;4.53;2.50;;;;;;;;;;5078941;28;20542;-90
2022/12/20 10:10:14;;;;;;;3.20;2.78;;;;;;;;;;5095657;28;20036;-90
2022/12/20 10:12:55;;;;;;;8.45;3.33;;;;;;;;;;5096132;28;20066;-90
2022/12/20 10:15:29;;;;;;;7.63;3.03;;;;;;;;;;5112509;28;20055;-90
2022/12/20 10:18:14;;;;;;;3.75;3.45;;;;;;;;;;5095921;28;20039;-90
2022/12/20 10:20:40;;;;;;;7.32;2.97;;;;;;;;;;5095326;28;20530;-90
2022/12/20 10:23:14;;;;;;;3.22;2.92;;;;;;;;;;5095430;28;20036;-90
2022/12/20 10:25:41;;;;;;;7.25;2.92;;;;;;;;;;5095507;28;20058;-90
2022/12/20 10:28:12;;;;;;;4.13;2.90;;;;;;;;;;5112035;28;20097;-90
2022/12/20 10:30:38;;;;;;;3.88;3.40;;;;;;;;;;5095184;28;20051;-90
2022/12/20 10:33:04;;;;;;;3.00;2.47;;;;;;;;;;5078832;28;20082;-90
2022/12/20 10:35:33;;;;;;;6.20;2.63;;;;;;;;;;5078740;28;20040;-90
2022/12/20 10:38:05;;;;;;;4.90;2.75;;;;;;;;;;5095625;28;20035;-91
2022/12/20 10:40:36;;;;;;;10.25;3.45;;;;;;;;;;5112366;28;20407;-91
2022/12/20 10:43:03;;;;;;;3.55;3.10;;;;;;;;;;5095064;28;20054;-89
2022/12/20 10:45:52;;;;;;;4.97;2.85;;;;;;;;;;5095024;28;20264;-90
2022/12/20 10:48:29;;;;;;;4.03;2.55;;;;;;;;;;5084401;28;20085;-90
2022/12/20 10:50:59;;;;;;;5.45;3.55;;;;;;;;;;5094789;28;20039;-90
2022/12/20 10:53:26;;;;;;;4.57;3.10;;;;;;;;;;5111921;28;20073;-90
2022/12/20 10:55:52;;;;;;;7.03;3.30;;;;;;;;;;5094870;28;20046;-90
2022/12/20 10:58:30;;;;;;;6.80;3.30;;;;;;;;;;5094661;28;20046;-91
2022/12/20 11:01:13;;;;;;;5.22;2.97;;;;;;;;;;5094846;28;20498;-91
2022/12/20 11:04:02;;;;;;;4.15;2.97;;;;;;;;;;5094465;28;20576;-90
2022/12/20 11:06:37;;;;;;;5.30;3.33;;;;;;;;;;5084972;28;20079;-90
2022/12/20 11:09:19;;;;;;;3.90;3.00;;;;;;;;;;5095047;28;20065;-91
2022/12/20 11:11:58;;;;;;;9.07;3.63;;;;;;;;;;5094751;28;20142;-91
2022/12/20 11:14:25;;;;;;;5.22;3.30;;;;;;;;;;5094960;28;20042;-91
2022/12/20 11:16:52;;;;;;;4.88;3.15;;;;;;;;;;5111764;28;20040;-91
2022/12/20 11:19:30;;;;;;;5.03;3.05;;;;;;;;;;5094510;28;20040;-91
2022/12/20 11:22:03;;;;;;;4.25;3.17;;;;;;;;;;5094506;28;20321;-90
2022/12/20 11:24:45;;;;;;;5.05;3.05;;;;;;;;;;5094786;28;20047;-90
2022/12/20 11:27:28;;;;;;;7.03;3.30;;;;;;;;;;5094310;28;20052;-91
2022/12/20 11:29:54;;;;;;;7.78;2.65;;;;;;;;;;5094462;28;20032;-91
2022/12/20 11:32:23;;;;;;;4.90;3.00;;;;;;;;;;5111678;28;20116;-91
2022/12/20 11:34:50;;;;;;;3.40;3.00;;;;;;;;;;5095030;28;20382;-91
2022/12/20 11:37:19;;;;;;;7.55;2.63;;;;;;;;;;5094408;28;20046;-91
2022/12/20 11:39:54;;;;;;;3.30;2.88;;;;;;;;;;5094547;28;20052;-91
2022/12/20 11:42:41;;;;;;;4.65;3.42;;;;;;;;;;5094544;28;20134;-90
2022/12/20 11:45:13;;;;;;;6.28;3.17;;;;;;;;;;5094265;28;20075;-91
2022/12/20 11:47:39;;;;;;;3.03;2.70;;;;;;;;;;5094684;28;20058;-91
2022/12/20 11:50:14;;;;;;;6.25;2.97;;;;;;;;;;5111605;28;20047;-91
2022/12/20 11:52:43;;;;;;;6.30;3.35;;;;;;;;;;5111128;28;20059;-90
2022/12/20 11:55:20;;;;;;;3.40;3.10;;;;;;;;;;5111742;28;20039;-92
2022/12/20 11:57:58;;;;;;;4.63;3.45;;;;;;;;;;5094270;28;20040;-90
2022/12/20 12:00:25;;;;;;;6.85;3.70;;;;;;;;;;5094348;28;20062;-91
2022/12/20 12:02:59;;;;;;;3.58;3.15;;;;;;;;;;5093965;28;20604;-91
2022/12/20 12:05:25;;;;;;;8.50;3.97;;;;;;;;;;5094194;28;20051;-91
2022/12/20 12:07:53;;;;;;;6.32;4.35;;;;;;;;;;5094047;28;20048;-91
2022/12/20 12:10:22;;;;;;;4.70;3.55;;;;;;;;;;5094141;28;20069;-90
2022/12/20 12:12:52;;;;;;;5.97;3.88;;;;;;;;;;5097667;28;20086;-91
2022/12/20 12:15:39;;;;;;;6.32;3.35;;;;;;;;;;5097985;28;20075;-91
2022/12/20 12:18:07;;;;;;;5.38;3.85;;;;;;;;;;5097678;28;20132;-91
2022/12/20 12:20:48;;;;;;;5.65;4.28;;;;;;;;;;5098224;28;20406;-90
2022/12/20 12:23:21;;;;;;;5.82;3.85;;;;;;;;;;5097590;28;20484;-89
2022/12/20 12:25:47;;;;;;;4.70;4.25;;;;;;;;;;5114719;28;20564;-89
2022/12/20 12:28:13;;;;;;;5.47;4.15;;;;;;;;;;5081028;28;20047;-90
2022/12/20 12:30:45;;;;;;;4.40;3.92;;;;;;;;;;5097815;28;20403;-90
2022/12/20 12:33:18;;;;;;;5.30;3.08;;;;;;;;;;5114534;28;20539;-90
2022/12/20 12:35:57;;;;;;;5.05;3.78;;;;;;;;;;5097427;28;20047;-90
2022/12/20 12:38:32;;;;;;;4.65;4.22;;;;;;;;;;5097981;28;20055;-89
2022/12/20 12:41:29;;;;;;;4.07;3.65;;;10.50;99.90;;;;;;5097523;28;20079;-89
2022/12/20 12:43:58;;;;;;;5.00;4.30;;;;;;;;;;5097767;28;20445;-89
2022/12/20 12:46:27;;;;;;;5.85;4.13;;;;;;;;;;5097069;28;20426;-90
2022/12/20 12:49:23;;;;;;;10.35;4.53;;;;;;;;;;5114256;28;20051;-90
2022/12/20 12:51:54;;;;;;;6.53;3.78;;;;;;;;;;5097373;28;20051;-90
2022/12/20 12:54:37;;;;;;;3.75;3.40;;;;;;;;;;5114415;28;20047;-91
2022/12/20 12:57:10;;;;;;;5.38;4.53;;;;;;;;;;5097150;28;20146;-90
2022/12/20 12:59:36;;;;;;;5.15;4.28;;;;;;;;;;5097155;28;20047;-90
2022/12/20 13:02:05;;;;;;;5.90;4.40;;;;;;;;;;5097101;28;20131;-90
2022/12/20 13:04:31;;;;;;;7.10;4.93;;;;;;;;;;5096726;28;20051;-89
2022/12/20 13:06:59;;;;;;;8.15;5.30;;;;;;;;;;5113597;28;20051;-89
2022/12/20 13:09:25;;;;;;;8.52;4.63;;;;;;;;;;5096994;28;20047;-90
2022/12/20 13:11:55;;;;;;;7.13;5.18;;;;;;;;;;5096736;28;20134;-90
2022/12/20 13:14:22;;;;;;;6.85;4.93;;;;;;;;;;5114017;28;20382;-90
2022/12/20 13:16:50;;;;;;;7.10;4.97;;;;;;;;;;5096776;28;20395;-90
2022/12/20 13:19:16;;;;;;;11.18;5.93;;;;;;;;;;5096491;28;20044;-90
2022/12/20 13:21:45;;;;;;;9.57;5.75;;;;;;;;;;5096197;28;20054;-91
2022/12/20 13:24:49;;;;;;;6.47;5.78;;;10.50;99.90;;;;;;5096898;28;20043;-90
2022/12/20 13:27:17;;;;;;;9.40;5.30;;;;;;;;;;5096615;28;20073;-89
2022/12/20 13:29:52;;;;;;;7.22;5.43;;;;;;;;;;5113498;28;20047;-90
2022/12/20 13:32:37;;;;;;;8.63;5.55;;;;;;;;;;5113623;28;20491;-90
2022/12/20 13:35:23;;;;;;;12.00;5.85;;;;;;;;;;5096530;28;20040;-90
2022/12/20 13:38:25;;;;;;;9.25;6.65;;;;;;;;;;5113206;28;20044;-89
2022/12/20 13:40:56;;;;;;;9.73;6.07;;;;;;;;;;5096249;28;20043;-89
2022/12/20 13:43:22;;;;;;;10.23;5.93;;;;;;;;;;5096206;28;20047;-90
2022/12/20 13:45:51;;;;;;;8.13;5.88;;;;;;;;;;5096097;28;20044;-91
2022/12/20 13:48:25;;;;;;;6.32;4.45;;;;;;;;;;5096125;28;20450;-90
2022/12/20 13:50:51;;;;;;;;;;;;;;;;;;5096358;28;20035;-92
2022/12/20 13:53:19;;;;;;;12.85;6.55;;;;;;;;;;5096253;28;19969;-91
2022/12/20 13:55:45;;;;;;;8.15;6.85;;;;;;;;;;5095953;28;20039;-90
2022/12/20 13:58:13;;;;;;;8.70;6.32;;;;;;;;;;5095934;28;20043;-90
2022/12/20 14:00:40;;;;;;;8.77;6.63;;;;;;;;;;5096185;28;20395;-91
2022/12/20 14:03:13;;;;;;;8.50;7.28;;;;;;;;;;5078892;28;20062;-90
2022/12/20 14:05:40;;;;;;;8.40;7.00;;;;;;;;;;5095633;28;20045;-90
2022/12/20 14:08:07;;;;;;;7.65;6.85;;;;;;;;;;5078774;28;20040;-90
2022/12/20 14:10:34;;;;;;;10.68;6.95;;;;;;;;;;5112499;28;20043;-90
2022/12/20 14:13:00;;;;;;;11.57;7.88;;;;;;;;;;5095802;28;20051;-90
2022/12/20 14:15:34;;;;;;;12.43;7.57;;;;;;;;;;5095356;28;20491;-91
2022/12/20 14:18:15;;;;;;;10.82;8.23;;;;;;;;;;5112553;28;20039;-90
2022/12/20 14:20:41;;;;;;;15.32;7.07;;;;;;;;;;5112573;28;20040;-90
2022/12/20 14:23:13;;;;;;;9.05;7.70;;;;;;;;;;5095740;28;20050;-90
2022/12/20 14:25:51;;;;;;;12.90;7.60;;;;;;;;;;5095199;28;20045;-90
2022/12/20 14:28:36;;;;;;;7.95;7.22;;;;;;;;;;5094684;28;20044;-91
2022/12/20 14:31:04;;;;;;;10.30;8.05;;;;;;;;;;5095033;28;20047;-90
2022/12/20 14:33:36;;;;;;;10.48;8.10;;;;;;;;;;5094885;28;20403;-91
2022/12/20 14:36:20;;;;;;;11.30;8.18;;;;;;;;;;5095598;28;20047;-91
2022/12/20 14:38:46;;;;;;;;;;;;;;;;;;5098978;28;20071;-91
2022/12/20 14:41:31;;;;;;;11.52;8.43;;;;;;;;;;5095756;28;20391;-92
2022/12/20 14:44:00;;;;;;;10.07;8.30;;;;;;;;;;5095501;28;20479;-92
2022/12/20 14:46:26;;;;;;;12.13;8.38;;;;;;;;;;5095325;28;20568;-96
2022/12/20 14:49:11;;;;;;;10.40;9.20;;;;;;;;;;5096094;28;20405;-92
2022/12/20 14:51:38;;;;;;;10.07;8.88;;;;;;;;;;5096043;28;20051;-93
2022/12/20 14:54:04;;;;;;;12.63;9.38;;;;;;;;;;5095659;28;20488;-94
2022/12/20 14:56:32;;;;;;;15.10;9.63;;;;;;;;;;5095561;28;20427;-91
2022/12/20 14:59:04;;;;;;;15.63;8.73;;;;;;;;;;5096188;28;20048;-94
2022/12/20 15:01:31;;;;;;;12.15;9.13;;;;;;;;;;5095733;28;20090;-93
2022/12/20 15:03:58;;;;;;;11.88;10.05;;;;;;;;;;5096668;28;20059;-94